sensor_id;sensor_type;location;lat;lon;timestamp;pressure;altitude;pressure_sealevel;temperature;humidity
29163;BME280;20331;53.144;8.208;2023-02-04T00:05:17;103104.50;;;7.26;82.33
29163;BME280;20331;53.144;8.208;2023-02-04T00:15:39;103116.22;;;7.11;81.98
29163;BME280;20331;53.144;8.208;2023-02-04T00:26:00;103120.41;;;7.06;82.45
29163;BME280;20331;53.144;8.208;2023-02-04T00:36:22;103119.34;;;6.97;81.91
29163;BME280;20331;53.144;8.208;2023-02-04T00:46:43;103140.66;;;6.91;81.83
29163;BME280;20331;53.144;8.208;2023-02-04T00:57:04;103166.34;;;6.88;82.01
29163;BME280;20331;53.144;8.208;2023-02-04T01:07:26;103200.69;;;6.90;81.62
29163;BME280;20331;53.144;8.208;2023-02-04T01:17:47;103216.97;;;6.89;81.04
29163;BME280;20331;53.144;8.208;2023-02-04T01:28:09;103239.22;;;6.87;81.29
29163;BME280;20331;53.144;8.208;2023-02-04T01:38:30;103251.06;;;6.81;81.90
29163;BME280;20331;53.144;8.208;2023-02-04T01:48:51;103295.75;;;6.84;81.31
29163;BME280;20331;53.144;8.208;2023-02-04T01:59:14;103299.72;;;6.72;81.67
29163;BME280;20331;53.144;8.208;2023-02-04T02:09:36;103329.53;;;6.64;82.04
29163;BME280;20331;53.144;8.208;2023-02-04T02:19:58;103348.06;;;6.52;81.94
29163;BME280;20331;53.144;8.208;2023-02-04T02:30:19;103350.13;;;6.34;82.69
29163;BME280;20331;53.144;8.208;2023-02-04T02:40:41;103357.41;;;6.19;83.14
29163;BME280;20331;53.144;8.208;2023-02-04T02:51:03;103369.91;;;6.07;83.90
29163;BME280;20331;53.144;8.208;2023-02-04T03:01:24;103372.34;;;6.02;83.43
29163;BME280;20331;53.144;8.208;2023-02-04T03:11:46;103384.44;;;6.06;84.01
29163;BME280;20331;53.144;8.208;2023-02-04T03:22:07;103411.72;;;6.01;83.42
29163;BME280;20331;53.144;8.208;2023-02-04T03:32:29;103442.13;;;5.88;83.45
29163;BME280;20331;53.144;8.208;2023-02-04T03:42:50;103450.56;;;5.84;85.28
29163;BME280;20331;53.144;8.208;2023-02-04T03:53:12;103464.16;;;5.81;84.58
29163;BME280;20331;53.144;8.208;2023-02-04T04:03:33;103475.00;;;5.73;84.33
29163;BME280;20331;53.144;8.208;2023-02-04T04:13:54;103498.94;;;5.72;85.31
29163;BME280;20331;53.144;8.208;2023-02-04T04:24:16;103507.31;;;5.66;85.64
29163;BME280;20331;53.144;8.208;2023-02-04T04:34:37;103527.81;;;5.65;86.46
29163;BME280;20331;53.144;8.208;2023-02-04T04:44:59;103549.91;;;5.60;85.96
29163;BME280;20331;53.144;8.208;2023-02-04T04:55:20;103560.22;;;5.61;85.31
29163;BME280;20331;53.144;8.208;2023-02-04T05:05:41;103559.19;;;5.56;84.60
29163;BME280;20331;53.144;8.208;2023-02-04T05:16:04;103565.81;;;5.50;84.37
29163;BME280;20331;53.144;8.208;2023-02-04T05:26:25;103584.44;;;5.44;84.36
29163;BME280;20331;53.144;8.208;2023-02-04T05:36:51;103616.72;;;5.38;85.12
29163;BME280;20331;53.144;8.208;2023-02-04T05:47:12;103613.28;;;5.37;85.23
29163;BME280;20331;53.144;8.208;2023-02-04T05:57:34;103634.59;;;5.35;85.42
29163;BME280;20331;53.144;8.208;2023-02-04T06:07:55;103660.97;;;5.31;85.33
29163;BME280;20331;53.144;8.208;2023-02-04T06:18:16;103662.47;;;5.26;85.71
29163;BME280;20331;53.144;8.208;2023-02-04T06:28:38;103680.22;;;5.20;84.72
29163;BME280;20331;53.144;8.208;2023-02-04T06:38:59;103701.25;;;5.11;85.80
29163;BME280;20331;53.144;8.208;2023-02-04T06:49:20;103705.94;;;4.99;85.79
29163;BME280;20331;53.144;8.208;2023-02-04T06:59:42;103709.94;;;4.92;85.56
29163;BME280;20331;53.144;8.208;2023-02-04T07:10:03;103744.47;;;4.80;86.39
29163;BME280;20331;53.144;8.208;2023-02-04T07:20:25;103773.13;;;4.70;86.16
29163;BME280;20331;53.144;8.208;2023-02-04T07:30:46;103788.41;;;4.67;85.69
29163;BME280;20331;53.144;8.208;2023-02-04T07:41:08;103783.91;;;4.61;85.86
29163;BME280;20331;53.144;8.208;2023-02-04T07:51:29;103785.63;;;4.62;86.18
29163;BME280;20331;53.144;8.208;2023-02-04T08:01:51;103799.13;;;4.58;86.40
29163;BME280;20331;53.144;8.208;2023-02-04T08:12:12;103823.97;;;4.59;86.60
29163;BME280;20331;53.144;8.208;2023-02-04T08:22:34;103828.28;;;4.60;85.84
29163;BME280;20331;53.144;8.208;2023-02-04T08:32:55;103850.25;;;4.74;85.22
29163;BME280;20331;53.144;8.208;2023-02-04T08:43:17;103862.78;;;4.87;84.65
29163;BME280;20331;53.144;8.208;2023-02-04T08:53:38;103892.19;;;5.15;85.11
29163;BME280;20331;53.144;8.208;2023-02-04T09:04:00;103890.47;;;5.36;84.49
29163;BME280;20331;53.144;8.208;2023-02-04T09:14:22;103891.31;;;5.35;83.60
29163;BME280;20331;53.144;8.208;2023-02-04T09:24:43;103895.31;;;5.49;83.75
29163;BME280;20331;53.144;8.208;2023-02-04T09:35:05;103909.19;;;5.54;82.59
29163;BME280;20331;53.144;8.208;2023-02-04T09:45:27;103901.84;;;5.63;83.68
29163;BME280;20331;53.144;8.208;2023-02-04T09:55:50;103925.53;;;5.76;84.09
29163;BME280;20331;53.144;8.208;2023-02-04T10:06:12;103948.88;;;5.82;81.65
29163;BME280;20331;53.144;8.208;2023-02-04T10:16:34;103946.53;;;5.87;78.48
29163;BME280;20331;53.144;8.208;2023-02-04T10:27:07;103939.53;;;6.05;79.32
29163;BME280;20331;53.144;8.208;2023-02-04T10:37:29;103943.50;;;6.19;79.89
29163;BME280;20331;53.144;8.208;2023-02-04T10:47:52;103942.94;;;6.26;78.37
29163;BME280;20331;53.144;8.208;2023-02-04T10:58:16;103940.47;;;6.29;76.53
29163;BME280;20331;53.144;8.208;2023-02-04T11:08:38;103940.38;;;6.26;77.13
29163;BME280;20331;53.144;8.208;2023-02-04T11:19:02;103951.81;;;6.34;76.90
29163;BME280;20331;53.144;8.208;2023-02-04T11:29:28;103947.69;;;6.39;76.15
29163;BME280;20331;53.144;8.208;2023-02-04T11:39:54;103953.31;;;6.51;75.76
29163;BME280;20331;53.144;8.208;2023-02-04T12:00:40;103933.50;;;6.72;74.87
29163;BME280;20331;53.144;8.208;2023-02-04T12:11:07;103955.56;;;6.89;73.47
29163;BME280;20331;53.144;8.208;2023-02-04T12:21:31;103951.38;;;6.91;75.37
29163;BME280;20331;53.144;8.208;2023-02-04T12:31:52;103937.47;;;7.11;74.63
29163;BME280;20331;53.144;8.208;2023-02-04T12:42:14;103961.69;;;7.17;74.01
29163;BME280;20331;53.144;8.208;2023-02-04T12:52:35;103965.28;;;7.22;74.36
29163;BME280;20331;53.144;8.208;2023-02-04T13:03:01;103964.69;;;7.29;73.31
29163;BME280;20331;53.144;8.208;2023-02-04T13:13:23;103970.06;;;7.36;72.27
29163;BME280;20331;53.144;8.208;2023-02-04T13:23:44;103955.19;;;7.28;74.28
29163;BME280;20331;53.144;8.208;2023-02-04T13:34:06;103955.31;;;7.31;73.17
29163;BME280;20331;53.144;8.208;2023-02-04T13:44:27;103941.81;;;7.38;72.43
29163;BME280;20331;53.144;8.208;2023-02-04T13:54:48;103952.81;;;7.59;73.20
29163;BME280;20331;53.144;8.208;2023-02-04T14:05:10;103967.56;;;7.63;71.88
29163;BME280;20331;53.144;8.208;2023-02-04T14:15:31;103972.09;;;7.70;73.22
29163;BME280;20331;53.144;8.208;2023-02-04T14:25:54;103980.81;;;7.75;73.75
29163;BME280;20331;53.144;8.208;2023-02-04T14:36:16;103984.84;;;7.65;73.26
29163;BME280;20331;53.144;8.208;2023-02-04T14:46:37;103985.28;;;7.54;72.01
29163;BME280;20331;53.144;8.208;2023-02-04T14:57:01;103975.78;;;7.53;73.31
29163;BME280;20331;53.144;8.208;2023-02-04T15:07:22;103981.88;;;7.55;75.02
29163;BME280;20331;53.144;8.208;2023-02-04T15:17:43;104008.53;;;7.55;74.24
29163;BME280;20331;53.144;8.208;2023-02-04T15:28:05;103989.44;;;7.49;73.79
29163;BME280;20331;53.144;8.208;2023-02-04T15:38:27;103993.66;;;7.47;73.59
29163;BME280;20331;53.144;8.208;2023-02-04T15:48:48;103993.53;;;7.44;73.43
29163;BME280;20331;53.144;8.208;2023-02-04T15:59:10;103998.94;;;7.26;74.16
29163;BME280;20331;53.144;8.208;2023-02-04T16:09:31;103982.06;;;7.10;75.32
29163;BME280;20331;53.144;8.208;2023-02-04T16:19:53;103991.59;;;6.89;74.16
29163;BME280;20331;53.144;8.208;2023-02-04T16:30:14;103997.97;;;6.75;76.24
29163;BME280;20331;53.144;8.208;2023-02-04T16:40:36;104005.22;;;6.63;77.90
29163;BME280;20331;53.144;8.208;2023-02-04T16:50:57;104024.50;;;6.52;77.27
29163;BME280;20331;53.144;8.208;2023-02-04T17:01:18;104033.47;;;6.40;76.50
29163;BME280;20331;53.144;8.208;2023-02-04T17:11:47;104043.22;;;6.26;77.18
29163;BME280;20331;53.144;8.208;2023-02-04T17:22:08;104035.69;;;6.10;77.73
29163;BME280;20331;53.144;8.208;2023-02-04T17:32:30;104036.00;;;5.97;78.18
29163;BME280;20331;53.144;8.208;2023-02-04T17:42:51;104033.00;;;5.86;78.45
29163;BME280;20331;53.144;8.208;2023-02-04T17:53:13;104021.44;;;5.77;77.89
29163;BME280;20331;53.144;8.208;2023-02-04T18:03:34;104022.00;;;5.70;78.18
29163;BME280;20331;53.144;8.208;2023-02-04T18:13:59;104050.03;;;5.64;78.25
29163;BME280;20331;53.144;8.208;2023-02-04T18:24:22;104056.63;;;5.59;78.42
29163;BME280;20331;53.144;8.208;2023-02-04T18:34:51;104061.16;;;5.44;78.49
29163;BME280;20331;53.144;8.208;2023-02-04T18:45:18;104058.97;;;5.34;79.24
29163;BME280;20331;53.144;8.208;2023-02-04T18:55:41;104061.22;;;5.26;79.51
29163;BME280;20331;53.144;8.208;2023-02-04T19:06:03;104061.69;;;5.18;78.68
29163;BME280;20331;53.144;8.208;2023-02-04T19:16:37;104040.41;;;5.01;78.97
29163;BME280;20331;53.144;8.208;2023-02-04T19:26:59;104047.09;;;4.97;79.18
29163;BME280;20331;53.144;8.208;2023-02-04T19:37:25;104047.63;;;4.90;79.63
29163;BME280;20331;53.144;8.208;2023-02-04T19:47:47;104044.66;;;4.81;80.16
29163;BME280;20331;53.144;8.208;2023-02-04T19:58:15;104032.63;;;4.80;79.85
29163;BME280;20331;53.144;8.208;2023-02-04T20:08:41;104031.41;;;4.72;79.67
29163;BME280;20331;53.144;8.208;2023-02-04T20:29:44;104025.78;;;4.62;80.62
29163;BME280;20331;53.144;8.208;2023-02-04T20:40:28;104015.88;;;4.50;80.40
29163;BME280;20331;53.144;8.208;2023-02-04T20:50:47;104023.03;;;4.40;79.83
29163;BME280;20331;53.144;8.208;2023-02-04T21:11:50;104013.75;;;4.24;80.92
29163;BME280;20331;53.144;8.208;2023-02-04T21:22:12;104025.38;;;4.18;80.20
29163;BME280;20331;53.144;8.208;2023-02-04T21:32:33;104007.38;;;4.16;80.35
29163;BME280;20331;53.144;8.208;2023-02-04T21:42:54;104002.56;;;4.04;81.09
29163;BME280;20331;53.144;8.208;2023-02-04T21:53:16;103999.47;;;3.94;81.51
29163;BME280;20331;53.144;8.208;2023-02-04T22:03:37;104006.06;;;3.89;81.36
29163;BME280;20331;53.144;8.208;2023-02-04T22:13:59;103990.25;;;3.80;81.24
29163;BME280;20331;53.144;8.208;2023-02-04T22:24:39;103994.34;;;3.76;82.10
29163;BME280;20331;53.144;8.208;2023-02-04T22:35:00;103977.25;;;3.75;81.74
29163;BME280;20331;53.144;8.208;2023-02-04T22:45:22;104003.50;;;3.71;81.55
29163;BME280;20331;53.144;8.208;2023-02-04T22:55:43;103971.06;;;3.72;81.38
29163;BME280;20331;53.144;8.208;2023-02-04T23:06:04;103981.19;;;3.69;81.65
29163;BME280;20331;53.144;8.208;2023-02-04T23:16:26;103957.03;;;3.64;81.78
29163;BME280;20331;53.144;8.208;2023-02-04T23:26:47;103967.09;;;3.61;80.30
29163;BME280;20331;53.144;8.208;2023-02-04T23:37:09;103968.75;;;3.59;81.78
29163;BME280;20331;53.144;8.208;2023-02-04T23:47:30;103951.63;;;3.58;80.30
29163;BME280;20331;53.144;8.208;2023-02-04T23:57:51;103919.06;;;3.55;81.18
